Terminal Aerodrome Forecast
Issued by NWS

Home | Current Version | Previous Version | Text Only | Print | Product List | Glossary On
Versions: 1 2 3 4 5 6 7 8 9 10 11 12 13 14 15 16 17 18 19 20 21 22 23 24 25 26 27 28
000
FTUS44 KOUN 241135
TAFLAW
TAF
KLAW 241135Z 2412/2512 12007KT P6SM SCT007 BKN150
     FM241400 15008KT P6SM BKN007
     FM241600 15009KT P6SM BKN015
     FM241900 16010KT P6SM BKN025
     FM242100 16010KT P6SM SCT035
     FM250700 15007KT P6SM OVC012=

USA.gov is the U.S. government's official web portal to all federal, state and local government web resources and services.